sensor_id;sensor_type;location;lat;lon;timestamp;temperature;humidity
59847;DHT22;45728;48.788;2.302;2022-12-07T00:01:39;3.10;99.90
59847;DHT22;45728;48.788;2.302;2022-12-07T00:04:09;3.10;99.90
59847;DHT22;45728;48.788;2.302;2022-12-07T00:06:38;3.10;99.90
59847;DHT22;45728;48.788;2.302;2022-12-07T00:09:05;3.10;99.90
59847;DHT22;45728;48.788;2.302;2022-12-07T00:11:32;3.10;99.90
59847;DHT22;45728;48.788;2.302;2022-12-07T00:14:02;3.10;99.90
59847;DHT22;45728;48.788;2.302;2022-12-07T00:16:29;3.00;99.90
59847;DHT22;45728;48.788;2.302;2022-12-07T00:18:56;3.00;99.90
59847;DHT22;45728;48.788;2.302;2022-12-07T00:21:31;3.00;99.90
59847;DHT22;45728;48.788;2.302;2022-12-07T00:23:57;3.10;99.90
59847;DHT22;45728;48.788;2.302;2022-12-07T00:26:26;3.10;99.90
59847;DHT22;45728;48.788;2.302;2022-12-07T00:28:58;3.00;99.90
59847;DHT22;45728;48.788;2.302;2022-12-07T00:31:26;3.00;99.90
59847;DHT22;45728;48.788;2.302;2022-12-07T00:33:52;3.00;99.90
59847;DHT22;45728;48.788;2.302;2022-12-07T00:36:21;2.90;99.90
59847;DHT22;45728;48.788;2.302;2022-12-07T00:38:47;3.00;99.90
59847;DHT22;45728;48.788;2.302;2022-12-07T00:41:16;3.00;99.90
59847;DHT22;45728;48.788;2.302;2022-12-07T00:43:43;2.90;99.90
59847;DHT22;45728;48.788;2.302;2022-12-07T00:46:10;2.90;99.90
59847;DHT22;45728;48.788;2.302;2022-12-07T00:48:36;2.90;99.90
59847;DHT22;45728;48.788;2.302;2022-12-07T00:51:03;2.90;99.90
59847;DHT22;45728;48.788;2.302;2022-12-07T00:53:30;3.00;99.90
59847;DHT22;45728;48.788;2.302;2022-12-07T00:55:57;2.90;99.90
59847;DHT22;45728;48.788;2.302;2022-12-07T00:58:23;3.00;99.90
59847;DHT22;45728;48.788;2.302;2022-12-07T01:00:50;2.90;99.90
59847;DHT22;45728;48.788;2.302;2022-12-07T01:03:16;3.00;99.90
59847;DHT22;45728;48.788;2.302;2022-12-07T01:05:51;3.00;99.90
59847;DHT22;45728;48.788;2.302;2022-12-07T01:08:17;3.00;99.90
59847;DHT22;45728;48.788;2.302;2022-12-07T01:10:43;3.00;99.90
59847;DHT22;45728;48.788;2.302;2022-12-07T01:13:09;3.10;99.90
59847;DHT22;45728;48.788;2.302;2022-12-07T01:15:42;3.10;99.90
59847;DHT22;45728;48.788;2.302;2022-12-07T01:18:09;3.10;99.90
59847;DHT22;45728;48.788;2.302;2022-12-07T01:20:35;3.10;99.90
59847;DHT22;45728;48.788;2.302;2022-12-07T01:23:02;3.10;99.90
59847;DHT22;45728;48.788;2.302;2022-12-07T01:25:28;3.10;99.90
59847;DHT22;45728;48.788;2.302;2022-12-07T01:27:54;3.10;99.90
59847;DHT22;45728;48.788;2.302;2022-12-07T01:30:20;3.10;99.90
59847;DHT22;45728;48.788;2.302;2022-12-07T01:32:46;3.10;99.90
59847;DHT22;45728;48.788;2.302;2022-12-07T01:35:12;3.10;99.90
59847;DHT22;45728;48.788;2.302;2022-12-07T01:37:39;3.10;99.90
59847;DHT22;45728;48.788;2.302;2022-12-07T01:40:06;3.10;99.90
59847;DHT22;45728;48.788;2.302;2022-12-07T01:42:33;3.00;99.90
59847;DHT22;45728;48.788;2.302;2022-12-07T01:47:52;3.00;99.90
59847;DHT22;45728;48.788;2.302;2022-12-07T01:50:20;3.00;99.90
59847;DHT22;45728;48.788;2.302;2022-12-07T01:52:48;2.90;99.90
59847;DHT22;45728;48.788;2.302;2022-12-07T01:55:16;3.00;99.90
59847;DHT22;45728;48.788;2.302;2022-12-07T01:57:47;3.00;99.90
59847;DHT22;45728;48.788;2.302;2022-12-07T02:00:14;3.00;99.90
59847;DHT22;45728;48.788;2.302;2022-12-07T02:05:18;2.90;99.90
59847;DHT22;45728;48.788;2.302;2022-12-07T02:07:47;2.90;99.90
59847;DHT22;45728;48.788;2.302;2022-12-07T02:12:56;2.70;99.90
59847;DHT22;45728;48.788;2.302;2022-12-07T02:15:45;2.80;99.90
59847;DHT22;45728;48.788;2.302;2022-12-07T02:18:16;2.70;99.90
59847;DHT22;45728;48.788;2.302;2022-12-07T02:24:10;2.70;99.90
59847;DHT22;45728;48.788;2.302;2022-12-07T02:27:01;2.60;99.90
59847;DHT22;45728;48.788;2.302;2022-12-07T02:40:34;2.70;99.90
59847;DHT22;45728;48.788;2.302;2022-12-07T02:45:43;2.70;99.90
59847;DHT22;45728;48.788;2.302;2022-12-07T02:48:13;2.70;99.90
59847;DHT22;45728;48.788;2.302;2022-12-07T02:50:45;2.60;99.90
59847;DHT22;45728;48.788;2.302;2022-12-07T02:55:56;2.50;99.90
59847;DHT22;45728;48.788;2.302;2022-12-07T02:58:35;2.40;99.90
59847;DHT22;45728;48.788;2.302;2022-12-07T03:07:26;2.40;99.90
59847;DHT22;45728;48.788;2.302;2022-12-07T03:13:02;2.30;99.90
59847;DHT22;45728;48.788;2.302;2022-12-07T03:18:16;2.30;99.90
59847;DHT22;45728;48.788;2.302;2022-12-07T03:20:44;2.40;99.90
59847;DHT22;45728;48.788;2.302;2022-12-07T03:23:12;2.30;99.90
59847;DHT22;45728;48.788;2.302;2022-12-07T03:25:46;2.20;99.90
59847;DHT22;45728;48.788;2.302;2022-12-07T03:28:16;2.10;99.90
59847;DHT22;45728;48.788;2.302;2022-12-07T03:30:52;2.10;99.90
59847;DHT22;45728;48.788;2.302;2022-12-07T03:33:22;2.00;99.90
59847;DHT22;45728;48.788;2.302;2022-12-07T03:36:28;2.00;99.90
59847;DHT22;45728;48.788;2.302;2022-12-07T03:38:55;2.00;99.90
59847;DHT22;45728;48.788;2.302;2022-12-07T03:41:26;2.10;99.90
59847;DHT22;45728;48.788;2.302;2022-12-07T03:43:55;2.00;99.90
59847;DHT22;45728;48.788;2.302;2022-12-07T03:46:44;1.80;99.90
59847;DHT22;45728;48.788;2.302;2022-12-07T03:49:34;1.70;99.90
59847;DHT22;45728;48.788;2.302;2022-12-07T03:52:22;1.80;99.90
59847;DHT22;45728;48.788;2.302;2022-12-07T03:57:32;1.80;99.90
59847;DHT22;45728;48.788;2.302;2022-12-07T03:59:59;1.70;99.90
59847;DHT22;45728;48.788;2.302;2022-12-07T04:02:27;1.60;99.90
59847;DHT22;45728;48.788;2.302;2022-12-07T04:04:55;1.50;99.90
59847;DHT22;45728;48.788;2.302;2022-12-07T04:07:21;1.40;99.90
59847;DHT22;45728;48.788;2.302;2022-12-07T04:09:47;1.40;99.90
59847;DHT22;45728;48.788;2.302;2022-12-07T04:12:13;1.40;99.90
59847;DHT22;45728;48.788;2.302;2022-12-07T04:14:39;1.40;99.90
59847;DHT22;45728;48.788;2.302;2022-12-07T04:17:06;1.30;99.90
59847;DHT22;45728;48.788;2.302;2022-12-07T04:19:33;1.30;99.90
59847;DHT22;45728;48.788;2.302;2022-12-07T04:22:01;1.20;99.90
59847;DHT22;45728;48.788;2.302;2022-12-07T04:24:28;1.30;99.90
59847;DHT22;45728;48.788;2.302;2022-12-07T04:26:54;1.30;99.90
59847;DHT22;45728;48.788;2.302;2022-12-07T04:29:21;1.30;99.90
59847;DHT22;45728;48.788;2.302;2022-12-07T04:31:48;1.40;99.90
59847;DHT22;45728;48.788;2.302;2022-12-07T04:34:15;1.40;99.90
59847;DHT22;45728;48.788;2.302;2022-12-07T04:36:41;1.30;99.90
59847;DHT22;45728;48.788;2.302;2022-12-07T04:39:13;1.40;99.90
59847;DHT22;45728;48.788;2.302;2022-12-07T04:41:42;1.50;99.90
59847;DHT22;45728;48.788;2.302;2022-12-07T04:44:08;1.50;99.90
59847;DHT22;45728;48.788;2.302;2022-12-07T04:46:34;1.50;99.90
59847;DHT22;45728;48.788;2.302;2022-12-07T04:49:00;1.50;99.90
59847;DHT22;45728;48.788;2.302;2022-12-07T04:51:28;1.60;99.90
59847;DHT22;45728;48.788;2.302;2022-12-07T04:53:55;1.80;99.90
59847;DHT22;45728;48.788;2.302;2022-12-07T04:56:22;2.00;99.90
59847;DHT22;45728;48.788;2.302;2022-12-07T04:58:49;2.10;99.90
59847;DHT22;45728;48.788;2.302;2022-12-07T05:01:16;2.30;99.90
59847;DHT22;45728;48.788;2.302;2022-12-07T05:03:43;2.30;99.90
59847;DHT22;45728;48.788;2.302;2022-12-07T05:06:10;2.40;99.90
59847;DHT22;45728;48.788;2.302;2022-12-07T05:08:37;2.30;99.90
59847;DHT22;45728;48.788;2.302;2022-12-07T05:11:04;2.30;99.90
59847;DHT22;45728;48.788;2.302;2022-12-07T05:13:30;2.30;99.90
59847;DHT22;45728;48.788;2.302;2022-12-07T05:15:57;2.40;99.90
59847;DHT22;45728;48.788;2.302;2022-12-07T05:18:23;2.40;99.90
59847;DHT22;45728;48.788;2.302;2022-12-07T05:20:49;2.40;99.90
59847;DHT22;45728;48.788;2.302;2022-12-07T05:23:17;2.40;99.90
59847;DHT22;45728;48.788;2.302;2022-12-07T05:25:43;2.40;99.90
59847;DHT22;45728;48.788;2.302;2022-12-07T05:28:10;2.30;99.90
59847;DHT22;45728;48.788;2.302;2022-12-07T05:30:36;2.30;99.90
59847;DHT22;45728;48.788;2.302;2022-12-07T05:33:02;2.30;99.90
59847;DHT22;45728;48.788;2.302;2022-12-07T05:35:29;2.30;99.90
59847;DHT22;45728;48.788;2.302;2022-12-07T05:37:56;2.40;99.90
59847;DHT22;45728;48.788;2.302;2022-12-07T05:40:23;2.50;99.90
59847;DHT22;45728;48.788;2.302;2022-12-07T05:42:49;2.50;99.90
59847;DHT22;45728;48.788;2.302;2022-12-07T05:45:15;2.60;99.90
59847;DHT22;45728;48.788;2.302;2022-12-07T05:47:41;2.60;99.90
59847;DHT22;45728;48.788;2.302;2022-12-07T05:50:07;2.60;99.90
59847;DHT22;45728;48.788;2.302;2022-12-07T05:52:33;2.60;99.90
59847;DHT22;45728;48.788;2.302;2022-12-07T05:54:59;2.60;99.90
59847;DHT22;45728;48.788;2.302;2022-12-07T05:57:25;2.60;99.90
59847;DHT22;45728;48.788;2.302;2022-12-07T05:59:51;2.70;99.90
59847;DHT22;45728;48.788;2.302;2022-12-07T06:02:17;2.60;99.90
59847;DHT22;45728;48.788;2.302;2022-12-07T06:04:45;2.60;99.90
59847;DHT22;45728;48.788;2.302;2022-12-07T06:07:13;2.70;99.90
59847;DHT22;45728;48.788;2.302;2022-12-07T06:09:40;2.70;99.90
59847;DHT22;45728;48.788;2.302;2022-12-07T06:12:09;2.80;99.90
59847;DHT22;45728;48.788;2.302;2022-12-07T06:14:53;2.80;99.90
59847;DHT22;45728;48.788;2.302;2022-12-07T06:17:19;2.90;99.90
59847;DHT22;45728;48.788;2.302;2022-12-07T06:19:45;2.90;99.90
59847;DHT22;45728;48.788;2.302;2022-12-07T06:22:11;2.90;99.90
59847;DHT22;45728;48.788;2.302;2022-12-07T06:24:39;2.80;99.90
59847;DHT22;45728;48.788;2.302;2022-12-07T06:27:05;2.80;99.90
59847;DHT22;45728;48.788;2.302;2022-12-07T06:29:32;2.80;99.90
59847;DHT22;45728;48.788;2.302;2022-12-07T06:31:58;2.80;99.90
59847;DHT22;45728;48.788;2.302;2022-12-07T06:34:25;2.70;99.90
59847;DHT22;45728;48.788;2.302;2022-12-07T06:36:51;2.70;99.90
59847;DHT22;45728;48.788;2.302;2022-12-07T06:39:21;2.70;99.90
59847;DHT22;45728;48.788;2.302;2022-12-07T06:41:47;2.80;99.90
59847;DHT22;45728;48.788;2.302;2022-12-07T06:44:13;2.80;99.90
59847;DHT22;45728;48.788;2.302;2022-12-07T06:46:39;2.80;99.90
59847;DHT22;45728;48.788;2.302;2022-12-07T06:49:05;2.80;99.90
59847;DHT22;45728;48.788;2.302;2022-12-07T06:51:33;2.90;99.90
59847;DHT22;45728;48.788;2.302;2022-12-07T06:54:05;2.90;99.90
59847;DHT22;45728;48.788;2.302;2022-12-07T06:56:31;2.90;99.90
59847;DHT22;45728;48.788;2.302;2022-12-07T06:58:57;2.90;99.90
59847;DHT22;45728;48.788;2.302;2022-12-07T07:01:23;2.90;99.90
59847;DHT22;45728;48.788;2.302;2022-12-07T07:03:49;2.90;99.90
59847;DHT22;45728;48.788;2.302;2022-12-07T07:06:15;3.00;99.90
59847;DHT22;45728;48.788;2.302;2022-12-07T07:08:41;3.00;99.90
59847;DHT22;45728;48.788;2.302;2022-12-07T07:11:08;3.10;99.90
59847;DHT22;45728;48.788;2.302;2022-12-07T07:13:35;3.20;99.90
59847;DHT22;45728;48.788;2.302;2022-12-07T07:16:01;3.20;99.90
59847;DHT22;45728;48.788;2.302;2022-12-07T07:18:27;3.10;99.90
59847;DHT22;45728;48.788;2.302;2022-12-07T07:20:54;3.20;99.90
59847;DHT22;45728;48.788;2.302;2022-12-07T07:23:21;3.20;99.90
59847;DHT22;45728;48.788;2.302;2022-12-07T07:25:47;3.20;99.90
59847;DHT22;45728;48.788;2.302;2022-12-07T07:28:14;3.20;99.90
59847;DHT22;45728;48.788;2.302;2022-12-07T07:30:40;3.30;99.90
59847;DHT22;45728;48.788;2.302;2022-12-07T07:33:07;3.30;99.90
59847;DHT22;45728;48.788;2.302;2022-12-07T07:35:34;3.30;99.90
59847;DHT22;45728;48.788;2.302;2022-12-07T07:38:00;3.40;99.90
59847;DHT22;45728;48.788;2.302;2022-12-07T07:40:27;3.40;99.90
59847;DHT22;45728;48.788;2.302;2022-12-07T07:42:55;3.40;99.90
59847;DHT22;45728;48.788;2.302;2022-12-07T07:45:23;3.40;99.90
59847;DHT22;45728;48.788;2.302;2022-12-07T07:47:50;3.40;99.90
59847;DHT22;45728;48.788;2.302;2022-12-07T07:50:17;3.40;99.90
59847;DHT22;45728;48.788;2.302;2022-12-07T07:52:44;3.40;99.90
59847;DHT22;45728;48.788;2.302;2022-12-07T07:55:10;3.50;99.90
59847;DHT22;45728;48.788;2.302;2022-12-07T07:57:38;3.50;99.90
59847;DHT22;45728;48.788;2.302;2022-12-07T08:00:09;3.50;99.90
59847;DHT22;45728;48.788;2.302;2022-12-07T08:02:36;3.50;99.90
59847;DHT22;45728;48.788;2.302;2022-12-07T08:05:02;3.50;99.90
59847;DHT22;45728;48.788;2.302;2022-12-07T08:07:28;3.50;99.90
59847;DHT22;45728;48.788;2.302;2022-12-07T08:09:54;3.50;99.90
59847;DHT22;45728;48.788;2.302;2022-12-07T08:12:20;3.50;99.90
59847;DHT22;45728;48.788;2.302;2022-12-07T08:14:46;3.50;99.90
59847;DHT22;45728;48.788;2.302;2022-12-07T08:17:13;3.50;99.90
59847;DHT22;45728;48.788;2.302;2022-12-07T08:19:39;3.50;99.90
59847;DHT22;45728;48.788;2.302;2022-12-07T08:22:05;3.50;99.90
59847;DHT22;45728;48.788;2.302;2022-12-07T08:24:33;3.50;99.90
59847;DHT22;45728;48.788;2.302;2022-12-07T08:27:00;3.60;99.90
59847;DHT22;45728;48.788;2.302;2022-12-07T08:29:26;3.70;99.90
59847;DHT22;45728;48.788;2.302;2022-12-07T08:31:52;3.70;99.90
59847;DHT22;45728;48.788;2.302;2022-12-07T08:34:18;3.70;99.90
59847;DHT22;45728;48.788;2.302;2022-12-07T08:36:44;3.80;99.90
59847;DHT22;45728;48.788;2.302;2022-12-07T08:39:10;3.80;99.90
59847;DHT22;45728;48.788;2.302;2022-12-07T08:41:36;3.90;99.90
59847;DHT22;45728;48.788;2.302;2022-12-07T08:44:03;3.90;99.90
59847;DHT22;45728;48.788;2.302;2022-12-07T08:46:45;3.90;99.90
59847;DHT22;45728;48.788;2.302;2022-12-07T08:49:18;3.90;99.90
59847;DHT22;45728;48.788;2.302;2022-12-07T08:51:44;4.00;99.90
59847;DHT22;45728;48.788;2.302;2022-12-07T08:54:14;3.90;99.90
59847;DHT22;45728;48.788;2.302;2022-12-07T08:56:41;3.90;99.90
59847;DHT22;45728;48.788;2.302;2022-12-07T08:59:08;3.90;99.90
59847;DHT22;45728;48.788;2.302;2022-12-07T09:01:34;3.90;99.90
59847;DHT22;45728;48.788;2.302;2022-12-07T09:04:01;3.90;99.90
59847;DHT22;45728;48.788;2.302;2022-12-07T09:06:27;3.90;99.90
59847;DHT22;45728;48.788;2.302;2022-12-07T09:08:57;3.90;99.90
59847;DHT22;45728;48.788;2.302;2022-12-07T09:11:24;3.90;99.90
59847;DHT22;45728;48.788;2.302;2022-12-07T09:13:50;4.00;99.90
59847;DHT22;45728;48.788;2.302;2022-12-07T09:16:16;3.90;99.90
59847;DHT22;45728;48.788;2.302;2022-12-07T09:18:42;4.00;99.90
59847;DHT22;45728;48.788;2.302;2022-12-07T09:21:08;4.00;99.90
59847;DHT22;45728;48.788;2.302;2022-12-07T09:23:35;4.00;99.90
59847;DHT22;45728;48.788;2.302;2022-12-07T09:26:02;4.00;99.90
59847;DHT22;45728;48.788;2.302;2022-12-07T09:28:31;4.00;99.90
59847;DHT22;45728;48.788;2.302;2022-12-07T09:30:57;4.00;99.90
59847;DHT22;45728;48.788;2.302;2022-12-07T09:33:23;4.10;99.90
59847;DHT22;45728;48.788;2.302;2022-12-07T09:35:50;4.10;99.90
59847;DHT22;45728;48.788;2.302;2022-12-07T09:38:18;4.10;99.90
59847;DHT22;45728;48.788;2.302;2022-12-07T09:40:45;4.00;99.90
59847;DHT22;45728;48.788;2.302;2022-12-07T09:43:22;4.00;99.90
59847;DHT22;45728;48.788;2.302;2022-12-07T09:45:51;4.00;99.90
59847;DHT22;45728;48.788;2.302;2022-12-07T09:48:34;4.00;99.90
59847;DHT22;45728;48.788;2.302;2022-12-07T09:51:21;4.10;99.90
59847;DHT22;45728;48.788;2.302;2022-12-07T09:53:49;4.20;99.90
59847;DHT22;45728;48.788;2.302;2022-12-07T09:56:16;4.30;99.90
59847;DHT22;45728;48.788;2.302;2022-12-07T09:58:43;4.60;99.90
59847;DHT22;45728;48.788;2.302;2022-12-07T10:01:20;5.40;99.90
59847;DHT22;45728;48.788;2.302;2022-12-07T10:03:59;6.10;99.90
59847;DHT22;45728;48.788;2.302;2022-12-07T10:06:26;6.30;99.90
59847;DHT22;45728;48.788;2.302;2022-12-07T10:08:52;6.40;99.90
59847;DHT22;45728;48.788;2.302;2022-12-07T10:11:18;6.50;99.90
59847;DHT22;45728;48.788;2.302;2022-12-07T10:13:49;6.60;99.90
59847;DHT22;45728;48.788;2.302;2022-12-07T10:19:19;6.90;99.90
59847;DHT22;45728;48.788;2.302;2022-12-07T10:22:13;7.40;99.90
59847;DHT22;45728;48.788;2.302;2022-12-07T10:24:41;7.70;99.90
59847;DHT22;45728;48.788;2.302;2022-12-07T10:27:30;7.60;99.90
59847;DHT22;45728;48.788;2.302;2022-12-07T10:29:57;7.40;99.90
59847;DHT22;45728;48.788;2.302;2022-12-07T10:34:50;7.30;99.90
59847;DHT22;45728;48.788;2.302;2022-12-07T10:37:19;7.10;99.90
59847;DHT22;45728;48.788;2.302;2022-12-07T10:39:57;6.80;99.90
59847;DHT22;45728;48.788;2.302;2022-12-07T10:48:00;6.40;99.90
59847;DHT22;45728;48.788;2.302;2022-12-07T11:07:35;6.90;99.90
59847;DHT22;45728;48.788;2.302;2022-12-07T11:10:33;7.20;99.90
59847;DHT22;45728;48.788;2.302;2022-12-07T11:15:23;8.00;99.90
59847;DHT22;45728;48.788;2.302;2022-12-07T11:20:35;7.60;99.90
59847;DHT22;45728;48.788;2.302;2022-12-07T11:36:53;6.70;99.90
59847;DHT22;45728;48.788;2.302;2022-12-07T11:39:26;6.70;99.90
59847;DHT22;45728;48.788;2.302;2022-12-07T11:41:56;6.80;99.90
59847;DHT22;45728;48.788;2.302;2022-12-07T11:50:14;6.90;99.90
59847;DHT22;45728;48.788;2.302;2022-12-07T12:01:31;7.00;99.90
59847;DHT22;45728;48.788;2.302;2022-12-07T12:04:16;7.20;99.90
59847;DHT22;45728;48.788;2.302;2022-12-07T12:06:45;7.20;99.90
59847;DHT22;45728;48.788;2.302;2022-12-07T12:09:20;7.20;99.90
59847;DHT22;45728;48.788;2.302;2022-12-07T12:22:46;7.10;99.90
59847;DHT22;45728;48.788;2.302;2022-12-07T12:28:03;7.10;99.90
59847;DHT22;45728;48.788;2.302;2022-12-07T12:30:37;7.10;99.90
59847;DHT22;45728;48.788;2.302;2022-12-07T12:33:16;7.20;99.90
59847;DHT22;45728;48.788;2.302;2022-12-07T12:35:45;7.20;99.90
59847;DHT22;45728;48.788;2.302;2022-12-07T12:38:32;7.40;99.90
59847;DHT22;45728;48.788;2.302;2022-12-07T12:41:02;7.30;99.90
59847;DHT22;45728;48.788;2.302;2022-12-07T12:52:01;7.10;99.90
59847;DHT22;45728;48.788;2.302;2022-12-07T12:57:32;7.20;99.90
59847;DHT22;45728;48.788;2.302;2022-12-07T13:00:00;7.20;99.90
59847;DHT22;45728;48.788;2.302;2022-12-07T13:02:35;7.20;99.90
59847;DHT22;45728;48.788;2.302;2022-12-07T13:05:18;7.30;99.90
59847;DHT22;45728;48.788;2.302;2022-12-07T13:15:41;7.50;99.90
59847;DHT22;45728;48.788;2.302;2022-12-07T13:23:34;7.40;99.90
59847;DHT22;45728;48.788;2.302;2022-12-07T13:31:56;7.60;99.90
59847;DHT22;45728;48.788;2.302;2022-12-07T13:34:40;7.70;99.90
59847;DHT22;45728;48.788;2.302;2022-12-07T13:37:25;7.80;99.90
59847;DHT22;45728;48.788;2.302;2022-12-07T13:40:01;7.70;99.90
59847;DHT22;45728;48.788;2.302;2022-12-07T13:42:38;7.60;99.90
59847;DHT22;45728;48.788;2.302;2022-12-07T13:45:23;7.60;99.90
59847;DHT22;45728;48.788;2.302;2022-12-07T13:48:15;7.80;99.90
59847;DHT22;45728;48.788;2.302;2022-12-07T13:50:52;7.80;99.90
59847;DHT22;45728;48.788;2.302;2022-12-07T13:53:19;7.50;99.90
59847;DHT22;45728;48.788;2.302;2022-12-07T13:55:46;7.50;99.90
59847;DHT22;45728;48.788;2.302;2022-12-07T13:58:13;7.50;99.90
59847;DHT22;45728;48.788;2.302;2022-12-07T14:00:40;7.50;99.90
59847;DHT22;45728;48.788;2.302;2022-12-07T14:05:41;7.40;99.90
59847;DHT22;45728;48.788;2.302;2022-12-07T14:10:39;7.20;99.90
59847;DHT22;45728;48.788;2.302;2022-12-07T14:13:44;7.30;99.90
59847;DHT22;45728;48.788;2.302;2022-12-07T14:16:30;7.20;99.90
59847;DHT22;45728;48.788;2.302;2022-12-07T14:18:58;7.20;99.90
59847;DHT22;45728;48.788;2.302;2022-12-07T14:21:29;7.20;99.90
59847;DHT22;45728;48.788;2.302;2022-12-07T14:26:33;7.10;99.90
59847;DHT22;45728;48.788;2.302;2022-12-07T14:29:19;7.20;99.90
59847;DHT22;45728;48.788;2.302;2022-12-07T14:31:45;7.20;99.90
59847;DHT22;45728;48.788;2.302;2022-12-07T14:34:14;7.10;99.90
59847;DHT22;45728;48.788;2.302;2022-12-07T14:36:40;7.00;99.90
59847;DHT22;45728;48.788;2.302;2022-12-07T14:39:06;7.00;99.90
59847;DHT22;45728;48.788;2.302;2022-12-07T14:41:32;7.20;99.90
59847;DHT22;45728;48.788;2.302;2022-12-07T14:44:18;7.20;99.90
59847;DHT22;45728;48.788;2.302;2022-12-07T14:46:45;7.10;99.90
59847;DHT22;45728;48.788;2.302;2022-12-07T14:49:11;7.10;99.90
59847;DHT22;45728;48.788;2.302;2022-12-07T14:51:39;6.90;99.90
59847;DHT22;45728;48.788;2.302;2022-12-07T14:54:09;6.80;99.90
59847;DHT22;45728;48.788;2.302;2022-12-07T14:56:38;6.80;99.90
59847;DHT22;45728;48.788;2.302;2022-12-07T14:59:04;6.80;99.90
59847;DHT22;45728;48.788;2.302;2022-12-07T15:01:30;6.80;99.90
59847;DHT22;45728;48.788;2.302;2022-12-07T15:03:56;6.90;99.90
59847;DHT22;45728;48.788;2.302;2022-12-07T15:06:22;6.80;99.90
59847;DHT22;45728;48.788;2.302;2022-12-07T15:08:48;6.80;99.90
59847;DHT22;45728;48.788;2.302;2022-12-07T15:11:16;6.70;99.90
59847;DHT22;45728;48.788;2.302;2022-12-07T15:13:43;6.70;99.90
59847;DHT22;45728;48.788;2.302;2022-12-07T15:16:28;6.60;99.90
59847;DHT22;45728;48.788;2.302;2022-12-07T15:18:54;6.60;99.90
59847;DHT22;45728;48.788;2.302;2022-12-07T15:21:20;6.70;99.90
59847;DHT22;45728;48.788;2.302;2022-12-07T15:23:46;6.70;99.90
59847;DHT22;45728;48.788;2.302;2022-12-07T15:26:13;6.70;99.90
59847;DHT22;45728;48.788;2.302;2022-12-07T15:28:40;6.70;99.90
59847;DHT22;45728;48.788;2.302;2022-12-07T15:31:14;6.70;99.90
59847;DHT22;45728;48.788;2.302;2022-12-07T15:33:41;6.60;99.90
59847;DHT22;45728;48.788;2.302;2022-12-07T15:36:07;6.60;99.90
59847;DHT22;45728;48.788;2.302;2022-12-07T15:38:35;6.60;99.90
59847;DHT22;45728;48.788;2.302;2022-12-07T15:41:01;6.50;99.90
59847;DHT22;45728;48.788;2.302;2022-12-07T15:43:27;6.60;99.90
59847;DHT22;45728;48.788;2.302;2022-12-07T15:46:12;6.60;99.90
59847;DHT22;45728;48.788;2.302;2022-12-07T15:48:38;6.60;99.90
59847;DHT22;45728;48.788;2.302;2022-12-07T15:51:08;6.60;99.90
59847;DHT22;45728;48.788;2.302;2022-12-07T15:53:35;6.60;99.90
59847;DHT22;45728;48.788;2.302;2022-12-07T15:56:01;6.60;99.90
59847;DHT22;45728;48.788;2.302;2022-12-07T15:58:27;6.60;99.90
59847;DHT22;45728;48.788;2.302;2022-12-07T16:00:53;6.60;99.90
59847;DHT22;45728;48.788;2.302;2022-12-07T16:03:19;6.60;99.90
59847;DHT22;45728;48.788;2.302;2022-12-07T16:05:49;6.60;99.90
59847;DHT22;45728;48.788;2.302;2022-12-07T16:08:15;6.50;99.90
59847;DHT22;45728;48.788;2.302;2022-12-07T16:10:41;6.50;99.90
59847;DHT22;45728;48.788;2.302;2022-12-07T16:13:10;6.60;99.90
59847;DHT22;45728;48.788;2.302;2022-12-07T16:15:40;6.50;99.90
59847;DHT22;45728;48.788;2.302;2022-12-07T16:18:06;6.40;99.90
59847;DHT22;45728;48.788;2.302;2022-12-07T16:20:32;6.40;99.90
59847;DHT22;45728;48.788;2.302;2022-12-07T16:22:58;6.40;99.90
59847;DHT22;45728;48.788;2.302;2022-12-07T16:25:24;6.40;99.90
59847;DHT22;45728;48.788;2.302;2022-12-07T16:27:53;6.40;99.90
59847;DHT22;45728;48.788;2.302;2022-12-07T16:30:20;6.30;99.90
59847;DHT22;45728;48.788;2.302;2022-12-07T16:32:46;6.30;99.90
59847;DHT22;45728;48.788;2.302;2022-12-07T16:35:13;6.20;99.90
59847;DHT22;45728;48.788;2.302;2022-12-07T16:37:41;6.30;99.90
59847;DHT22;45728;48.788;2.302;2022-12-07T16:40:08;6.40;99.90
59847;DHT22;45728;48.788;2.302;2022-12-07T16:42:35;6.40;99.90
59847;DHT22;45728;48.788;2.302;2022-12-07T16:45:01;6.40;99.90
59847;DHT22;45728;48.788;2.302;2022-12-07T16:47:28;6.30;99.90
59847;DHT22;45728;48.788;2.302;2022-12-07T16:49:54;6.30;99.90
59847;DHT22;45728;48.788;2.302;2022-12-07T16:52:21;6.20;99.90
59847;DHT22;45728;48.788;2.302;2022-12-07T16:54:48;6.30;99.90
59847;DHT22;45728;48.788;2.302;2022-12-07T16:57:14;6.30;99.90
59847;DHT22;45728;48.788;2.302;2022-12-07T16:59:40;6.30;99.90
59847;DHT22;45728;48.788;2.302;2022-12-07T17:02:10;6.30;99.90
59847;DHT22;45728;48.788;2.302;2022-12-07T17:04:37;6.30;99.90
59847;DHT22;45728;48.788;2.302;2022-12-07T17:07:05;6.20;99.90
59847;DHT22;45728;48.788;2.302;2022-12-07T17:09:31;6.20;99.90
59847;DHT22;45728;48.788;2.302;2022-12-07T17:11:58;6.20;99.90
59847;DHT22;45728;48.788;2.302;2022-12-07T17:14:24;6.20;99.90
59847;DHT22;45728;48.788;2.302;2022-12-07T17:17:08;6.20;99.90
59847;DHT22;45728;48.788;2.302;2022-12-07T17:19:35;6.20;99.90
59847;DHT22;45728;48.788;2.302;2022-12-07T17:22:01;6.20;99.90
59847;DHT22;45728;48.788;2.302;2022-12-07T17:24:27;6.20;99.90
59847;DHT22;45728;48.788;2.302;2022-12-07T17:26:53;6.20;99.90
59847;DHT22;45728;48.788;2.302;2022-12-07T17:29:20;6.10;99.90
59847;DHT22;45728;48.788;2.302;2022-12-07T17:31:47;6.10;99.90
59847;DHT22;45728;48.788;2.302;2022-12-07T17:34:14;6.10;99.90
59847;DHT22;45728;48.788;2.302;2022-12-07T17:36:41;6.10;99.90
59847;DHT22;45728;48.788;2.302;2022-12-07T17:39:08;6.20;99.90
59847;DHT22;45728;48.788;2.302;2022-12-07T17:41:36;6.20;99.90
59847;DHT22;45728;48.788;2.302;2022-12-07T17:44:20;6.30;99.90
59847;DHT22;45728;48.788;2.302;2022-12-07T17:46:49;6.30;99.90
59847;DHT22;45728;48.788;2.302;2022-12-07T17:49:15;6.30;99.90
59847;DHT22;45728;48.788;2.302;2022-12-07T17:51:42;6.30;99.90
59847;DHT22;45728;48.788;2.302;2022-12-07T17:54:26;6.30;99.90
59847;DHT22;45728;48.788;2.302;2022-12-07T17:56:53;6.20;99.90
59847;DHT22;45728;48.788;2.302;2022-12-07T17:59:20;6.10;99.90
59847;DHT22;45728;48.788;2.302;2022-12-07T18:01:46;6.10;99.90
59847;DHT22;45728;48.788;2.302;2022-12-07T18:04:12;6.10;99.90
59847;DHT22;45728;48.788;2.302;2022-12-07T18:06:38;6.10;99.90
59847;DHT22;45728;48.788;2.302;2022-12-07T18:09:05;6.10;99.90
59847;DHT22;45728;48.788;2.302;2022-12-07T18:11:32;6.10;99.90
59847;DHT22;45728;48.788;2.302;2022-12-07T18:13:58;6.10;99.90
59847;DHT22;45728;48.788;2.302;2022-12-07T18:16:27;6.00;99.90
59847;DHT22;45728;48.788;2.302;2022-12-07T18:18:57;5.90;99.90
59847;DHT22;45728;48.788;2.302;2022-12-07T18:21:26;5.90;99.90
59847;DHT22;45728;48.788;2.302;2022-12-07T18:23:54;6.00;99.90
59847;DHT22;45728;48.788;2.302;2022-12-07T18:26:23;5.90;99.90
59847;DHT22;45728;48.788;2.302;2022-12-07T18:28:49;6.00;99.90
59847;DHT22;45728;48.788;2.302;2022-12-07T18:31:15;6.10;99.90
59847;DHT22;45728;48.788;2.302;2022-12-07T18:33:43;6.10;99.90